createdAt,value
2022-08-15T00:02:34.771Z,20.75
2022-08-15T00:07:49.475Z,18.00
2022-08-15T00:13:18.557Z,18.70
2022-08-15T00:18:41.793Z,21.58
2022-08-15T00:24:20.707Z,17.63
2022-08-15T00:29:49.785Z,20.52
2022-08-15T00:35:12.186Z,20.08
2022-08-15T00:40:34.613Z,18.35
2022-08-15T00:45:56.869Z,17.98
2022-08-15T00:51:29.722Z,19.65
2022-08-15T00:57:00.137Z,17.77
2022-08-15T01:02:46.411Z,17.95
2022-08-15T01:08:08.339Z,20.75
2022-08-15T01:14:02.459Z,17.63
2022-08-15T01:19:29.646Z,17.70
2022-08-15T01:25:26.319Z,17.23
2022-08-15T01:31:02.697Z,18.52
2022-08-15T01:36:32.102Z,18.58
2022-08-15T01:42:01.579Z,18.25
2022-08-15T01:47:46.637Z,17.45
2022-08-15T01:53:26.653Z,18.10
2022-08-15T01:58:56.794Z,18.52
2022-08-15T02:04:25.742Z,19.17
2022-08-15T02:09:51.689Z,19.65
2022-08-15T02:15:17.347Z,20.42
2022-08-15T02:20:39.946Z,18.20
2022-08-15T02:26:10.106Z,19.17
2022-08-15T02:31:34.469Z,18.42
2022-08-15T02:36:56.664Z,20.50
2022-08-15T02:42:18.967Z,18.90
2022-08-15T02:47:44.259Z,18.03
2022-08-15T02:53:13.855Z,19.00
2022-08-15T02:58:41.645Z,18.90
2022-08-15T03:04:28.546Z,18.55
2022-08-15T03:09:56.642Z,17.88
2022-08-15T03:15:18.875Z,18.60
2022-08-15T03:20:44.799Z,18.35
2022-08-15T03:26:25.521Z,17.65
2022-08-15T03:31:51.324Z,18.05
2022-08-15T03:37:13.138Z,17.17
2022-08-15T03:42:38.944Z,16.77
2022-08-15T03:48:02.117Z,16.65
2022-08-15T03:53:24.412Z,17.00
2022-08-15T03:58:50.684Z,16.55
2022-08-15T04:04:18.371Z,15.57
2022-08-15T04:09:43.570Z,15.93
2022-08-15T04:15:09.756Z,15.00
2022-08-15T04:20:38.515Z,15.20
2022-08-15T04:26:08.067Z,16.33
2022-08-15T04:31:32.858Z,17.58
2022-08-15T04:36:58.088Z,15.60
2022-08-15T04:42:24.302Z,16.85
2022-08-15T04:47:47.778Z,16.08
2022-08-15T04:53:09.830Z,16.15
2022-08-15T04:58:42.827Z,16.83
2022-08-15T05:04:24.102Z,14.65
2022-08-15T05:09:58.890Z,14.40
2022-08-15T05:15:23.248Z,13.13
2022-08-15T05:20:45.161Z,12.77
2022-08-15T05:26:53.140Z,11.90
2022-08-15T05:31:51.158Z,12.43
2022-08-15T05:37:14.679Z,13.60
2022-08-15T05:43:02.100Z,13.48
2022-08-15T05:48:34.036Z,14.57
2022-08-15T05:54:26.139Z,14.30
2022-08-15T06:00:00.588Z,17.02
2022-08-15T06:05:35.756Z,13.27
2022-08-15T06:11:10.428Z,12.85
2022-08-15T06:16:46.173Z,11.75
2022-08-15T06:22:09.540Z,11.48
2022-08-15T06:27:49.900Z,12.48
2022-08-15T06:33:57.099Z,12.50
2022-08-15T06:40:06.692Z,12.98
2022-08-15T06:45:36.158Z,14.80
2022-08-15T06:51:01.836Z,13.20
2022-08-15T06:56:40.369Z,13.67
2022-08-15T07:02:50.546Z,12.73
2022-08-15T07:08:17.320Z,16.42
2022-08-15T07:14:20.766Z,12.52
2022-08-15T07:19:55.672Z,12.73
2022-08-15T07:30:55.578Z,13.90
2022-08-15T07:36:30.303Z,12.85
2022-08-15T07:41:56.210Z,12.38
2022-08-15T07:47:24.995Z,12.93
2022-08-15T07:53:01.205Z,12.93
2022-08-15T07:58:26.581Z,12.77
2022-08-15T08:03:56.891Z,15.05
2022-08-15T08:09:44.405Z,14.10
2022-08-15T08:15:37.354Z,13.80
2022-08-15T08:21:08.354Z,15.43
2022-08-15T08:26:36.865Z,14.02
2022-08-15T08:32:29.988Z,14.00
2022-08-15T08:38:31.007Z,12.38
2022-08-15T08:44:17.808Z,14.82
2022-08-15T08:50:34.409Z,15.35
2022-08-15T08:55:53.730Z,16.45
2022-08-15T09:01:24.508Z,14.88
2022-08-15T09:06:52.623Z,12.93
2022-08-15T09:12:22.894Z,13.75
2022-08-15T09:17:59.895Z,12.75
2022-08-15T09:23:26.002Z,12.40
2022-08-15T09:29:18.657Z,12.77
2022-08-15T09:35:12.203Z,12.88
2022-08-15T09:41:12.103Z,12.82
2022-08-15T09:46:45.569Z,11.43
2022-08-15T09:52:47.508Z,12.35
2022-08-15T09:58:20.203Z,11.85
2022-08-15T10:03:48.138Z,11.10
2022-08-15T10:10:01.306Z,9.95
2022-08-15T10:21:15.518Z,12.75
2022-08-15T10:32:37.895Z,12.55
2022-08-15T10:37:58.965Z,11.65
2022-08-15T10:43:53.668Z,11.20
2022-08-15T10:49:31.975Z,12.55
2022-08-15T10:55:12.487Z,10.45
2022-08-15T11:00:37.355Z,13.10
2022-08-15T11:06:14.532Z,10.20
2022-08-15T11:11:44.097Z,10.10
2022-08-15T11:17:16.612Z,12.48
2022-08-15T11:22:49.295Z,15.63
2022-08-15T11:28:36.999Z,10.32
2022-08-15T11:34:37.727Z,9.35
2022-08-15T11:39:59.318Z,9.32
2022-08-15T11:51:03.352Z,10.85
2022-08-15T11:56:56.091Z,9.88
2022-08-15T12:02:31.773Z,11.02
2022-08-15T12:07:59.114Z,9.82
2022-08-15T12:13:34.371Z,11.15
2022-08-15T12:24:23.760Z,13.98
2022-08-15T12:29:51.073Z,9.98
2022-08-15T12:35:24.160Z,10.68
2022-08-15T12:40:57.498Z,11.82
2022-08-15T12:46:29.277Z,9.70
2022-08-15T12:51:51.298Z,11.80
2022-08-15T12:57:15.729Z,14.38
2022-08-15T13:02:47.798Z,10.02
2022-08-15T13:08:27.255Z,9.73
2022-08-15T13:13:52.917Z,12.63
2022-08-15T13:19:23.446Z,9.85
2022-08-15T13:24:47.840Z,11.57
2022-08-15T13:30:19.568Z,12.57
2022-08-15T13:35:58.814Z,11.38
2022-08-15T13:41:22.218Z,11.95
2022-08-15T13:47:08.733Z,13.82
2022-08-15T13:52:46.844Z,12.23
2022-08-15T13:58:19.836Z,13.93
2022-08-15T14:03:42.541Z,9.98
2022-08-15T14:09:18.612Z,9.40
2022-08-15T14:14:46.777Z,10.85
2022-08-15T14:20:27.298Z,9.63
2022-08-15T14:27:12.201Z,8.68
2022-08-15T14:31:31.297Z,8.73
2022-08-15T14:36:54.801Z,8.57
2022-08-15T14:42:21.683Z,8.35
2022-08-15T14:47:52.831Z,9.37
2022-08-15T14:53:14.869Z,8.07
2022-08-15T14:58:40.960Z,7.40
2022-08-15T15:04:20.839Z,10.90
2022-08-15T15:09:43.017Z,7.83
2022-08-15T15:15:06.393Z,7.78
2022-08-15T15:20:46.105Z,7.32
2022-08-15T15:26:10.636Z,7.43
2022-08-15T15:31:32.717Z,7.72
2022-08-15T15:36:56.287Z,8.18
2022-08-15T15:42:20.670Z,8.98
2022-08-15T15:47:59.990Z,6.75
2022-08-15T15:53:30.929Z,13.73
2022-08-15T15:59:02.080Z,6.50
2022-08-15T16:04:29.672Z,6.03
2022-08-15T16:09:55.001Z,5.28
2022-08-15T16:15:43.818Z,6.40
2022-08-15T16:21:17.220Z,7.45
2022-08-15T16:26:53.302Z,10.52
2022-08-15T16:32:33.420Z,8.68
2022-08-15T16:38:01.118Z,6.57
2022-08-15T16:43:53.386Z,9.32
2022-08-15T16:49:23.236Z,6.57
2022-08-15T16:55:02.079Z,6.82
2022-08-15T17:00:44.263Z,9.13
2022-08-15T17:06:23.422Z,8.32
2022-08-15T17:12:12.178Z,11.80
2022-08-15T17:18:11.567Z,8.68
2022-08-15T17:24:55.826Z,6.85
2022-08-15T17:30:54.065Z,7.05
2022-08-15T17:35:53.779Z,11.30
2022-08-15T17:41:20.769Z,9.68
2022-08-15T17:46:50.626Z,9.02
2022-08-15T17:52:18.945Z,9.75
2022-08-15T17:58:08.830Z,9.38
2022-08-15T18:03:31.806Z,7.75
2022-08-15T18:08:57.745Z,10.55
2022-08-15T18:20:26.868Z,10.50
2022-08-15T18:25:52.129Z,7.75
2022-08-15T18:31:21.538Z,9.75
2022-08-15T18:36:51.641Z,11.98
2022-08-15T18:42:22.495Z,13.20
2022-08-15T18:47:45.100Z,9.68
2022-08-15T18:53:19.349Z,10.32
2022-08-15T18:58:43.317Z,12.48
2022-08-15T19:04:49.267Z,11.30
2022-08-15T19:09:58.709Z,13.68
2022-08-15T19:15:24.758Z,10.13
2022-08-15T19:21:00.349Z,11.85
2022-08-15T19:26:37.583Z,11.07
2022-08-15T19:32:03.132Z,10.20
2022-08-15T19:37:51.881Z,9.87
2022-08-15T19:43:38.232Z,9.98
2022-08-15T19:49:15.204Z,12.73
2022-08-15T19:55:38.367Z,11.15
2022-08-15T20:00:56.731Z,10.35
2022-08-15T20:06:39.344Z,11.55
2022-08-15T20:12:19.272Z,11.57
2022-08-15T20:18:29.603Z,11.52
2022-08-15T20:24:07.726Z,11.82
2022-08-15T20:29:53.403Z,10.52
2022-08-15T20:35:24.493Z,12.80
2022-08-15T20:41:10.842Z,11.18
2022-08-15T20:46:45.242Z,13.40
2022-08-15T20:52:39.562Z,12.23
2022-08-15T20:57:51.986Z,12.48
2022-08-15T21:04:02.153Z,11.32
2022-08-15T21:09:16.726Z,17.92
2022-08-15T21:15:09.673Z,12.40
2022-08-15T21:20:35.583Z,12.25
2022-08-15T21:25:58.328Z,12.82
2022-08-15T21:31:38.336Z,13.65
2022-08-15T21:37:33.917Z,12.32
2022-08-15T21:43:09.866Z,13.60
2022-08-15T21:48:49.053Z,12.93
2022-08-15T21:54:21.653Z,13.15
2022-08-15T22:00:20.215Z,12.23
2022-08-15T22:05:55.177Z,12.85
2022-08-15T22:11:40.478Z,13.20
2022-08-15T22:17:02.330Z,13.43
2022-08-15T22:22:28.646Z,12.23
2022-08-15T22:27:54.039Z,13.75
2022-08-15T22:33:16.200Z,15.10
2022-08-15T22:38:38.943Z,13.52
2022-08-15T22:44:05.826Z,14.90
2022-08-15T22:49:40.419Z,13.68
2022-08-15T22:55:04.261Z,14.25
2022-08-15T23:00:34.447Z,13.07
2022-08-15T23:06:23.781Z,13.23
2022-08-15T23:11:50.039Z,14.13
2022-08-15T23:17:27.689Z,12.80
2022-08-15T23:22:51.468Z,12.38
2022-08-15T23:28:23.180Z,13.75
2022-08-15T23:33:57.901Z,13.52
2022-08-15T23:39:35.022Z,13.57
2022-08-15T23:44:59.147Z,12.18
2022-08-15T23:50:22.755Z,13.15
2022-08-15T23:55:59.411Z,12.73
